Time;durP1;ratioP1;P1;durP2;ratioP2;P2;SDS_P1;SDS_P2;PMS_P1;PMS_P2;Temp;Humidity;BMP_temperature;BMP_pressure;BME280_temperature;BME280_humidity;BME280_pressure;Samples;Min_cycle;Max_cycle;Signal;HPM_P1;HPM_P2
2022/05/10 00:00:12;;;;;;;3.10;2.47;;;;;;;14.75;59.82;100072.97;5134224;27;20643;-63
2022/05/10 00:02:39;;;;;;;3.30;2.10;;;;;;;14.72;59.83;100080.59;5134380;27;20251;-63
2022/05/10 00:05:07;;;;;;;2.73;2.47;;;;;;;14.75;59.69;100072.97;5134712;27;20226;-63
2022/05/10 00:07:37;;;;;;;2.80;2.63;;;;;;;14.78;59.27;100069.88;5134011;27;20321;-63
2022/05/10 00:10:07;;;;;;;3.07;2.40;;;;;;;14.75;59.58;100070.28;5134975;27;20182;-63
2022/05/10 00:12:34;;;;;;;2.43;2.13;;;;;;;14.65;59.78;100079.78;5133970;27;20246;-63
2022/05/10 00:15:01;;;;;;;4.67;2.47;;;;;;;14.53;59.71;100076.91;5134061;27;20193;-62
2022/05/10 00:17:33;;;;;;;2.50;2.30;;;;;;;14.61;59.40;100078.53;5134364;27;20190;-64
2022/05/10 00:20:00;;;;;;;3.13;2.33;;;;;;;14.65;59.25;100075.25;5133885;27;20187;-63
2022/05/10 00:22:27;;;;;;;2.33;2.23;;;;;;;14.64;59.20;100078.97;5134495;27;20263;-63
2022/05/10 00:24:55;;;;;;;3.67;2.47;;;;;;;14.60;58.89;100076.91;5133682;27;20254;-62
2022/05/10 00:27:21;;;;;;;2.40;2.20;;;;;;;14.61;59.18;100068.69;5133713;27;20658;-63
2022/05/10 00:29:48;;;;;;;2.27;2.07;;;;;;;14.55;59.52;100074.84;5134009;27;20190;-62
2022/05/10 00:32:15;;;;;;;4.40;2.60;;;;;;;14.55;59.65;100066.81;5133914;27;20190;-63
2022/05/10 00:34:43;;;;;;;2.90;2.60;;;;;;;14.61;59.24;100066.00;5133561;27;20723;-63
2022/05/10 00:37:11;;;;;;;2.50;2.30;;;;;;;14.66;58.89;100071.53;5133792;27;20196;-62
2022/05/10 00:39:38;;;;;;;6.30;2.27;;;;;;;14.71;58.68;100063.72;5133996;27;20223;-62
2022/05/10 00:42:12;;;;;;;4.10;2.40;;;;;;;14.77;58.75;100072.75;5133932;27;20221;-62
2022/05/10 00:44:45;;;;;;;3.60;2.43;;;;;;;14.73;58.25;100072.38;5133492;27;20711;-62
2022/05/10 00:47:23;;;;;;;2.70;2.13;;;;;;;14.75;58.69;100064.94;5133887;27;20182;-62
2022/05/10 00:49:58;;;;;;;2.90;2.70;;;;;;;14.78;58.22;100067.22;5133973;27;20185;-63
2022/05/10 00:52:33;;;;;;;2.40;2.30;;;;;;;14.80;58.70;100062.50;5133890;27;20617;-63
2022/05/10 00:55:07;;;;;;;4.80;2.57;;;;;;;14.81;57.95;100069.47;5133909;27;20181;-63
2022/05/10 00:57:41;;;;;;;5.47;2.70;;;;;;;14.77;58.19;100062.91;5133264;27;20176;-63
2022/05/10 01:00:11;;;;;;;4.93;2.60;;;;;;;14.42;59.37;100063.38;5133170;27;20185;-63
2022/05/10 01:02:48;;;;;;;2.87;2.60;;;;;;;14.46;59.11;100062.72;5133253;27;20217;-63
2022/05/10 01:05:20;;;;;;;5.27;2.90;;;;;;;14.42;59.52;100071.38;5133440;27;20186;-63
2022/05/10 01:07:52;;;;;;;4.10;2.73;;;;;;;14.39;59.50;100064.59;5133690;27;20190;-63
2022/05/10 01:10:29;;;;;;;4.53;2.50;;;;;;;14.38;60.46;100062.13;5133626;27;20182;-62
2022/05/10 01:13:08;;;;;;;3.87;3.03;;;;;;;14.44;60.49;100067.47;5133588;27;20198;-62
2022/05/10 01:15:37;;;;;;;10.43;5.17;;;;;;;14.48;59.39;100059.84;5133240;27;20178;-63
2022/05/10 01:18:03;;;;;;;9.20;4.00;;;;;;;14.46;59.36;100049.34;5133269;27;20266;-63
2022/05/10 01:20:38;;;;;;;9.60;5.07;;;;;;;14.48;59.50;100066.03;5133202;27;20190;-63
2022/05/10 01:23:26;;;;;;;7.07;3.93;;;;;;;14.47;60.18;100061.72;5133056;27;20262;-62
2022/05/10 01:26:03;;;;;;;5.43;4.10;;;;;;;14.42;60.56;100055.34;5133117;27;20651;-62
2022/05/10 01:28:37;;;;;;;10.10;6.17;;;;;;;14.38;61.06;100052.25;5132896;27;20186;-62
2022/05/10 01:31:10;;;;;;;8.40;6.00;;;;;;;14.37;60.88;100050.59;5133228;27;20267;-62
2022/05/10 01:33:42;;;;;;;8.57;5.43;;;;;;;14.34;61.04;100051.00;5133935;27;20246;-63
2022/05/10 01:36:19;;;;;;;9.53;5.63;;;;;;;14.30;61.00;100052.44;5133660;27;20204;-62
2022/05/10 01:38:55;;;;;;;10.13;4.80;;;;;;;14.23;61.96;100048.97;5133928;27;20535;-62
2022/05/10 01:41:31;;;;;;;5.20;4.70;;;;;;;14.20;61.11;100038.66;5132628;27;20205;-63
2022/05/10 01:44:05;;;;;;;11.63;5.17;;;;;;;14.18;61.31;100047.91;5133123;27;20565;-63
2022/05/10 01:46:33;;;;;;;12.03;5.33;;;;;;;13.96;61.95;100039.25;5133828;27;20262;-63
2022/05/10 01:49:07;;;;;;;11.20;5.13;;;;;;;13.98;61.98;100039.91;5132406;27;20228;-63
2022/05/10 01:51:40;;;;;;;11.27;5.30;;;;;;;14.04;61.63;100046.25;5133772;27;20257;-62
2022/05/10 01:54:31;;;;;;;7.60;4.90;;;;;;;14.07;61.96;100049.34;5133766;27;20187;-62
2022/05/10 01:56:57;;;;;;;11.47;4.53;;;;;;;14.08;62.13;100045.66;5119658;28;20190;-62
2022/05/10 01:59:25;;;;;;;10.50;4.60;;;;;;;14.04;62.56;100043.56;5136462;27;20597;-62
2022/05/10 02:01:55;;;;;;;9.10;5.10;;;;;;;14.02;62.56;100035.78;5136374;27;20213;-62
2022/05/10 02:04:29;;;;;;;8.03;5.53;;;;;;;13.99;62.74;100046.88;5136827;27;20190;-62
2022/05/10 02:07:03;;;;;;;8.70;5.43;;;;;;;13.89;63.68;100049.09;5137623;27;20254;-62
2022/05/10 02:09:37;;;;;;;7.27;5.00;;;;;;;13.86;63.83;100049.53;5137340;27;20242;-63
2022/05/10 02:12:11;;;;;;;4.53;4.23;;;;;;;13.84;64.34;100051.56;5136975;27;20246;-62
2022/05/10 02:14:43;;;;;;;5.57;5.03;;;;;;;13.82;64.19;100048.31;5137523;27;20182;-62
2022/05/10 02:17:15;;;;;;;8.10;4.40;;;;;;;13.80;64.57;100042.31;5136131;27;20651;-62
2022/05/10 02:19:51;;;;;;;14.63;4.30;;;;;;;13.68;65.22;100046.63;5136240;27;20178;-62
2022/05/10 02:22:22;;;;;;;5.00;3.27;;;;;;;13.65;65.07;100039.03;5136174;27;20210;-62
2022/05/10 02:24:55;;;;;;;7.17;4.43;;;;;;;13.64;65.74;100037.38;5136558;27;20189;-62
2022/05/10 02:27:28;;;;;;;5.00;4.53;;;;;;;13.61;65.51;100035.13;5136365;27;20183;-62
2022/05/10 02:30:02;;;;;;;7.80;5.37;;;;;;;13.62;65.62;100035.94;5136722;27;20182;-62
2022/05/10 02:35:18;;;;;;;8.80;4.97;;;;;;;13.51;66.20;100031.16;5136647;27;20181;-62
2022/05/10 02:37:45;;;;;;;6.87;5.43;;;;;;;13.44;66.66;100030.34;5137057;27;20267;-62
2022/05/10 02:40:12;;;;;;;9.23;4.30;;;;;;;13.37;67.62;100035.66;5136230;27;20193;-62
2022/05/10 02:42:39;;;;;;;17.67;5.33;;;;;;;13.31;68.03;100036.44;5135678;27;20271;-62
2022/05/10 02:45:09;;;;;;;7.27;4.70;;;;;;;13.19;68.23;100030.03;5135757;27;20655;-63
2022/05/10 02:47:38;;;;;;;11.97;4.70;;;;;;;13.07;69.14;100031.63;5135615;27;20194;-63
2022/05/10 02:50:08;;;;;;;8.20;4.57;;;;;;;13.06;68.76;100032.66;5136321;27;20213;-63
2022/05/10 02:52:35;;;;;;;16.07;5.27;;;;;;;12.90;68.98;100032.16;5136282;27;20247;-63
2022/05/10 02:55:08;;;;;;;6.83;4.87;;;;;;;12.78;69.19;100039.88;5135592;27;20194;-62
2022/05/10 02:57:35;;;;;;;8.03;4.80;;;;;;;12.61;70.13;100038.53;5136654;27;20186;-62
2022/05/10 03:00:07;;;;;;;5.13;4.33;;;;;;;12.62;70.05;100032.19;5136310;27;20221;-62
2022/05/10 03:02:40;;;;;;;6.67;3.60;;;;;;;12.66;69.45;100038.78;5134128;27;20216;-62
2022/05/10 03:05:08;;;;;;;4.93;4.00;;;;;;;12.67;68.89;100035.13;5135399;27;20188;-62
2022/05/10 03:07:35;;;;;;;6.03;3.73;;;;;;;12.58;69.02;100033.59;5135607;27;20247;-62
2022/05/10 03:10:02;;;;;;;8.37;4.07;;;;;;;12.63;68.79;100031.19;5135477;27;20262;-62
2022/05/10 03:12:29;;;;;;;4.57;4.17;;;;;;;12.65;69.29;100029.13;5135784;27;20229;-63
2022/05/10 03:14:56;;;;;;;9.47;3.57;;;;;;;12.70;69.09;100034.69;5135479;27;20198;-63
2022/05/10 03:17:23;;;;;;;3.70;3.40;;;;;;;12.75;68.71;100031.47;5135320;27;20621;-62
2022/05/10 03:19:51;;;;;;;3.67;3.13;;;;;;;12.77;68.48;100026.72;5135930;27;20250;-63
2022/05/10 03:22:18;;;;;;;5.10;3.83;;;;;;;12.83;68.24;100042.75;5135456;27;20222;-63
2022/05/10 03:24:44;;;;;;;5.63;3.40;;;;;;;12.82;67.55;100035.78;5135224;27;20194;-63
2022/05/10 03:27:13;;;;;;;8.33;3.70;;;;;;;12.82;68.23;100035.78;5134853;27;20744;-63
2022/05/10 03:29:40;;;;;;;6.47;3.80;;;;;;;12.89;68.05;100033.16;5136031;27;20308;-63
2022/05/10 03:32:08;;;;;;;4.77;3.27;;;;;;;12.97;68.21;100041.84;5134772;27;20568;-63
2022/05/10 03:37:20;;;;;;;8.43;4.10;;;;;;;13.09;67.99;100037.59;5135431;27;20262;-63
2022/05/10 03:39:47;;;;;;;7.67;4.40;;;;;;;13.23;68.17;100041.97;5134893;27;20255;-63
2022/05/10 03:42:14;;;;;;;6.13;4.10;;;;;;;13.35;67.53;100048.38;5134863;27;20214;-63
2022/05/10 03:44:40;;;;;;;8.93;4.27;;;;;;;13.41;67.68;100046.75;5135112;27;20190;-63
2022/05/10 03:47:09;;;;;;;19.73;4.80;;;;;;;13.48;67.48;100048.41;5134803;27;20243;-63
2022/05/10 03:49:36;;;;;;;10.00;4.77;;;;;;;13.46;67.51;100047.81;5135415;27;20274;-63
2022/05/10 03:52:04;;;;;;;10.00;5.10;;;;;;;13.35;68.29;100043.03;5135279;27;20257;-62
2022/05/10 03:54:32;;;;;;;13.47;5.70;;;;;;;13.41;68.13;100046.75;5134828;27;20239;-63
2022/05/10 03:56:59;;;;;;;14.07;5.80;;;;;;;13.96;67.39;100046.44;5134817;27;20563;-62
2022/05/10 03:59:27;;;;;;;9.00;6.33;;;;;;;14.52;65.43;100058.41;5134461;27;20189;-63
2022/05/10 04:01:53;;;;;;;6.57;5.57;;;;;;;15.08;63.33;100057.66;5134636;27;20194;-63
2022/05/10 04:04:20;;;;;;;11.00;6.73;;;;;;;15.62;60.96;100074.16;5134779;27;20194;-63
2022/05/10 04:06:47;;;;;;;13.60;5.07;;;;;;;16.01;59.42;100066.91;5134066;27;20247;-62
2022/05/10 04:09:14;;;;;;;14.83;5.37;;;;;;;16.32;58.24;100074.88;5134098;27;20239;-63
2022/05/10 04:11:42;;;;;;;16.40;5.67;;;;;;;16.88;56.72;100075.66;5134324;27;20193;-63
2022/05/10 04:14:09;;;;;;;14.43;5.90;;;;;;;17.48;54.75;100072.09;5134314;27;20194;-62
2022/05/10 04:16:36;;;;;;;5.40;3.20;;;;;;;18.48;57.46;100074.75;5133980;27;20192;-64
2022/05/10 04:19:02;;;;;;;5.60;3.73;;;;;;;19.77;54.38;100075.97;5133952;27;20665;-65
2022/05/10 04:21:29;;;;;;;4.97;3.23;;;;;;;20.93;51.26;100063.38;5133374;27;20633;-66
2022/05/10 04:23:56;;;;;;;7.13;4.73;;;;;;;21.78;42.29;100069.03;5134323;27;20217;-66
2022/05/10 04:26:23;;;;;;;7.70;5.13;;;;;;;22.01;40.62;100074.97;5130322;27;20639;-67
2022/05/10 04:28:51;;;;;;;8.40;5.23;;;;;;;22.35;39.96;100070.13;5133732;27;20193;-68
2022/05/10 04:31:18;;;;;;;8.63;5.57;;;;;;;22.68;39.03;100076.13;5133992;27;20190;-66
2022/05/10 04:33:45;;;;;;;6.97;5.80;;;;;;;23.28;39.66;100068.34;5133576;27;20754;-66
2022/05/10 04:36:12;;;;;;;5.83;5.20;;;;;;;23.91;38.19;100078.09;5133732;27;20663;-66
2022/05/10 04:38:39;;;;;;;5.87;5.37;;;;;;;24.54;35.14;100086.56;5134693;27;20187;-67
2022/05/10 04:43:51;;;;;;;14.97;5.50;;;;;;;25.35;35.16;100081.03;5133794;27;20207;-66
2022/05/10 04:46:18;;;;;;;10.80;5.80;;;;;;;25.71;32.33;100085.19;5134006;27;20194;-63
2022/05/10 04:48:45;;;;;;;7.63;4.97;;;;;;;26.10;34.22;100081.47;5133774;27;20220;-63
2022/05/10 04:51:11;;;;;;;8.90;5.90;;;;;;;26.65;32.81;100086.50;5133270;27;20242;-63
2022/05/10 04:53:38;;;;;;;6.23;5.73;;;;;;;27.45;31.16;100090.31;5133182;27;20197;-64
2022/05/10 04:56:06;;;;;;;14.40;5.50;;;;;;;28.09;29.84;100080.41;5133265;27;20214;-64
2022/05/10 04:58:33;;;;;;;6.37;4.47;;;;;;;27.92;30.26;100084.78;5134003;27;20247;-64
2022/05/10 05:01:05;;;;;;;9.40;4.73;;;;;;;27.77;28.58;100087.69;5133176;27;20246;-64
2022/05/10 05:03:32;;;;;;;6.07;5.00;;;;;;;27.36;29.13;100070.22;5133373;27;20205;-64
2022/05/10 05:05:59;;;;;;;4.97;4.50;;;;;;;27.27;29.64;100082.88;5133056;27;20186;-64
2022/05/10 05:08:26;;;;;;;7.43;4.83;;;;;;;26.94;30.42;100078.28;5133243;27;20186;-68
2022/05/10 05:10:54;;;;;;;7.43;5.00;;;;;;;27.45;29.96;100077.47;5133229;27;20186;-67
2022/05/10 05:13:21;;;;;;;7.97;4.70;;;;;;;27.52;28.80;100082.56;5133281;27;20683;-68
2022/05/10 05:15:47;;;;;;;9.83;4.63;;;;;;;27.71;29.22;100083.41;5133226;27;20186;-68
2022/05/10 05:18:15;;;;;;;5.63;5.00;;;;;;;28.08;28.05;100083.44;5132976;27;20238;-68
2022/05/10 05:20:43;;;;;;;7.93;4.37;;;;;;;27.66;29.07;100084.31;5132903;27;20215;-67
2022/05/10 05:23:12;;;;;;;11.07;4.83;;;;;;;28.00;29.14;100081.38;5132361;27;20253;-67
2022/05/10 05:25:41;;;;;;;7.50;4.20;;;;;;;27.88;28.46;100090.03;5132809;27;20247;-68
2022/05/10 05:28:09;;;;;;;7.93;4.73;;;;;;;28.29;27.68;100084.75;5131945;27;20213;-69
2022/05/10 05:30:36;;;;;;;12.13;5.43;;;;;;;28.12;28.19;100079.00;5126314;27;20190;-71
2022/05/10 05:33:03;;;;;;;10.90;5.40;;;;;;;28.51;27.72;100082.25;5114489;27;20694;-71
2022/05/10 05:35:32;;;;;;;7.63;4.87;;;;;;;27.69;28.38;100077.44;5144455;27;20196;-69
2022/05/10 05:37:58;;;;;;;4.93;4.53;;;;;;;27.77;28.88;100079.50;5128355;27;20190;-71
2022/05/10 05:40:26;;;;;;;6.77;5.13;;;;;;;27.70;28.57;100073.59;5139570;27;20274;-71
2022/05/10 05:42:53;;;;;;;8.87;4.93;;;;;;;27.58;28.87;100078.66;5137385;27;20224;-71
2022/05/10 05:45:23;;;;;;;11.40;6.20;;;;;;;27.52;29.62;100077.13;5136835;27;20610;-70
2022/05/10 05:47:50;;;;;;;10.77;5.47;;;;;;;27.66;29.19;100076.09;5116432;27;20218;-71
2022/05/10 05:50:18;;;;;;;8.17;5.13;;;;;;;27.84;28.83;100074.50;5120881;27;20832;-71
2022/05/10 05:52:48;;;;;;;10.10;4.97;;;;;;;27.79;29.39;100074.56;5114361;28;20251;-72
2022/05/10 05:55:16;;;;;;;6.33;4.67;;;;;;;28.06;28.36;100086.47;5126695;27;20201;-69
2022/05/10 05:57:43;;;;;;;7.40;4.00;;;;;;;27.85;28.28;100084.34;5134494;27;20735;-69
2022/05/10 06:00:14;;;;;;;5.07;4.47;;;;;;;27.68;28.57;100079.34;5116283;27;20193;-71
2022/05/10 06:02:42;;;;;;;4.63;3.53;;;;;;;27.62;28.32;100086.00;5113239;28;20578;-68
2022/05/10 06:05:09;;;;;;;8.40;3.70;;;;;;;27.45;28.98;100082.13;5114077;28;20195;-71
2022/05/10 06:07:36;;;;;;;7.43;3.43;;;;;;;27.49;29.50;100083.16;5131861;27;20190;-69
2022/05/10 06:10:05;;;;;;;10.47;3.93;;;;;;;27.94;28.69;100082.56;5134484;27;20194;-69
2022/05/10 06:12:32;;;;;;;6.03;3.57;;;;;;;28.41;27.91;100079.66;5118325;27;20187;-68
2022/05/10 06:15:00;;;;;;;3.37;3.07;;;;;;;28.18;28.02;100080.56;5114050;28;20255;-67
2022/05/10 06:17:27;;;;;;;8.70;3.40;;;;;;;27.61;28.40;100078.88;5113557;28;20190;-67
2022/05/10 06:19:53;;;;;;;4.87;2.47;;;;;;;27.07;28.60;100077.63;5115415;28;20258;-66
2022/05/10 06:22:20;;;;;;;9.70;3.70;;;;;;;26.93;29.58;100076.66;5115681;28;20251;-66
2022/05/10 06:24:47;;;;;;;19.17;3.73;;;;;;;26.96;28.27;100081.56;5115451;27;20240;-66
2022/05/10 06:27:16;;;;;;;10.67;2.60;;;;;;;26.77;29.86;100076.03;5115525;28;20655;-66
2022/05/10 06:29:44;;;;;;;6.17;2.13;;;;;;;26.50;30.69;100072.16;5115510;28;20663;-66
2022/05/10 06:32:12;;;;;;;3.57;2.50;;;;;;;26.16;30.19;100079.50;5116409;28;20191;-68
2022/05/10 06:34:40;;;;;;;7.60;3.03;;;;;;;25.83;30.89;100074.78;5129626;27;20278;-67
2022/05/10 06:38:16;;;;;;;4.73;2.33;;;;;;;26.05;30.11;100076.03;5132952;27;20265;-66
2022/05/10 06:40:05;;;;;;;4.77;2.30;;;;;;;26.24;30.73;100068.00;5118584;27;20574;-66
2022/05/10 06:42:34;;;;;;;3.83;2.30;;;;;;;26.62;30.44;100067.19;5136081;27;20190;-66
2022/05/10 06:45:00;;;;;;;4.90;2.67;;;;;;;27.06;29.19;100065.06;5135158;27;20247;-66
2022/05/10 06:47:27;;;;;;;3.20;2.30;;;;;;;27.16;28.98;100073.94;5136393;27;20210;-67
2022/05/10 06:49:54;;;;;;;16.37;3.80;;;;;;;27.14;28.44;100078.06;5135914;27;20239;-66
2022/05/10 06:52:20;;;;;;;2.47;2.30;;;;;;;26.85;29.45;100074.56;5148556;27;20211;-66
2022/05/10 06:54:47;;;;;;;7.90;2.90;;;;;;;26.98;29.72;100068.44;5156563;27;20226;-65
2022/05/10 06:57:14;;;;;;;4.70;2.43;;;;;;;27.01;29.18;100067.84;5157392;27;20249;-65
2022/05/10 06:59:43;;;;;;;7.87;2.40;;;;;;;27.03;29.01;100071.13;5156014;27;20731;-65
2022/05/10 07:02:09;;;;;;;23.40;2.93;;;;;;;27.24;29.12;100078.00;5156025;27;20195;-66
2022/05/10 07:04:36;;;;;;;5.97;2.47;;;;;;;27.36;29.91;100073.75;5155961;27;20246;-68
2022/05/10 07:07:03;;;;;;;2.53;2.33;;;;;;;27.59;29.28;100069.38;5156016;27;20246;-67
2022/05/10 07:09:30;;;;;;;7.13;2.50;;;;;;;27.73;29.56;100067.56;5135947;27;20190;-68
2022/05/10 07:11:56;;;;;;;3.03;2.40;;;;;;;27.77;28.09;100065.84;5135640;27;20253;-67
2022/05/10 07:14:23;;;;;;;4.97;2.37;;;;;;;27.73;28.65;100065.63;5135426;27;20216;-67
2022/05/10 07:16:51;;;;;;;4.83;2.60;;;;;;;27.57;28.40;100066.13;5135142;27;20655;-68
2022/05/10 07:19:18;;;;;;;12.60;2.90;;;;;;;27.66;28.89;100059.72;5135009;27;20240;-68
2022/05/10 07:21:45;;;;;;;8.47;2.80;;;;;;;27.72;29.07;100066.72;5135003;27;20247;-67
2022/05/10 07:24:11;;;;;;;8.47;2.70;;;;;;;28.03;28.53;100064.41;5134814;27;20226;-68
2022/05/10 07:26:40;;;;;;;13.43;2.47;;;;;;;28.05;27.61;100063.00;5135791;27;20536;-67
2022/05/10 07:29:07;;;;;;;3.97;2.33;;;;;;;28.06;27.39;100064.59;5135086;27;20202;-69
2022/05/10 07:31:34;;;;;;;2.63;2.07;;;;;;;27.72;28.13;100063.19;5135087;27;20190;-68
2022/05/10 07:34:02;;;;;;;4.50;2.60;;;;;;;27.71;28.52;100056.91;5134787;27;20198;-69
2022/05/10 07:36:33;;;;;;;4.37;1.87;;;;;;;27.95;28.26;100051.41;5135079;27;20198;-68
2022/05/10 07:39:01;;;;;;;9.30;2.10;;;;;;;28.04;28.33;100060.56;5122312;27;20192;-70
2022/05/10 07:41:28;;;;;;;7.23;1.90;;;;;;;27.44;29.09;100055.94;5134481;27;20246;-67
2022/05/10 07:43:56;;;;;;;6.10;2.57;;;;;;;27.69;28.16;100056.38;5134488;27;20304;-67
2022/05/10 07:46:23;;;;;;;1.90;1.80;;;;;;;27.96;27.86;100058.50;5134553;27;20651;-67
2022/05/10 07:48:50;;;;;;;3.83;2.10;;;;;;;27.63;27.35;100054.03;5128131;27;20274;-68
2022/05/10 07:51:19;;;;;;;5.00;2.27;;;;;;;27.62;28.77;100057.88;5116294;27;20562;-68
2022/05/10 07:53:46;;;;;;;4.80;2.47;;;;;;;27.91;28.17;100055.84;5134521;27;20243;-67
2022/05/10 07:56:13;;;;;;;5.40;2.27;;;;;;;27.96;27.82;100042.09;5127178;27;20659;-66
2022/05/10 07:58:40;;;;;;;2.90;2.50;;;;;;;28.23;26.95;100059.44;5113697;28;20666;-68
2022/05/10 08:01:08;;;;;;;6.20;2.30;;;;;;;28.61;26.80;100060.19;5115077;28;20194;-69
2022/05/10 08:03:35;;;;;;;22.00;3.60;;;;;;;28.89;26.36;100056.41;5113795;28;20218;-68
2022/05/10 08:06:03;;;;;;;6.53;2.30;;;;;;;29.04;26.24;100047.94;5130511;27;20194;-67
2022/05/10 08:08:34;;;;;;;2.10;1.90;;;;;;;29.15;25.82;100052.06;5140142;27;20613;-68
2022/05/10 08:11:02;;;;;;;6.03;2.20;;;;;;;29.20;25.65;100052.00;5155051;27;20213;-67
2022/05/10 08:13:31;;;;;;;6.07;2.20;;;;;;;29.50;25.74;100048.63;5155076;27;20197;-67
2022/05/10 08:15:59;;;;;;;4.57;2.70;;;;;;;29.75;24.61;100045.34;5135670;27;20196;-67
2022/05/10 08:18:26;;;;;;;4.03;2.10;;;;;;;30.04;24.74;100040.28;5134146;27;20250;-67
2022/05/10 08:20:54;;;;;;;3.17;2.17;;;;;;;30.21;24.14;100045.94;5133722;27;20194;-67
2022/05/10 08:23:25;;;;;;;3.73;2.43;;;;;;;30.05;25.01;100041.91;5134237;27;20191;-67
2022/05/10 08:25:55;;;;;;;2.83;2.10;;;;;;;29.97;23.87;100044.59;5134003;27;20189;-67
2022/05/10 08:28:22;;;;;;;2.10;2.00;;;;;;;29.86;23.94;100046.75;5134712;27;20523;-66
2022/05/10 08:30:49;;;;;;;5.33;1.93;;;;;;;29.87;24.26;100040.16;5132677;27;20194;-67
2022/05/10 08:33:18;;;;;;;5.50;2.10;;;;;;;29.93;25.32;100038.88;5133809;27;20193;-66
2022/05/10 08:35:45;;;;;;;4.53;2.00;;;;;;;29.93;24.92;100032.63;5133288;27;20646;-66
2022/05/10 08:38:12;;;;;;;3.97;2.40;;;;;;;29.95;23.74;100041.31;5120346;27;20740;-66
2022/05/10 08:40:43;;;;;;;4.30;2.17;;;;;;;29.61;24.27;100028.16;5121314;27;20662;-66
2022/05/10 08:43:16;;;;;;;4.67;2.27;;;;;;;29.77;24.47;100034.91;5133436;27;20182;-65
2022/05/10 08:45:46;;;;;;;8.20;2.20;;;;;;;29.84;24.05;100027.06;5133322;27;20211;-66
2022/05/10 08:48:13;;;;;;;4.17;1.90;;;;;;;30.00;23.99;100031.06;5133629;27;20221;-68
2022/05/10 08:50:41;;;;;;;3.37;2.13;;;;;;;30.17;24.58;100027.69;5133825;27;20611;-67
2022/05/10 08:53:08;;;;;;;2.10;1.93;;;;;;;30.33;23.05;100031.66;5133073;27;20190;-67
2022/05/10 08:55:42;;;;;;;2.30;2.10;;;;;;;30.01;23.16;100021.72;5130351;27;20194;-66
2022/05/10 08:58:18;;;;;;;4.00;2.10;;;;;;;29.60;24.65;100018.28;5113297;28;20187;-67
2022/05/10 09:00:48;;;;;;;4.87;2.37;;;;;;;29.74;24.23;100024.56;5113096;28;20306;-66
2022/05/10 09:03:27;;;;;;;15.57;3.37;;;;;;;29.82;23.22;100023.00;5112795;28;20183;-66
2022/05/10 09:06:00;;;;;;;3.83;2.40;;;;;;;29.91;25.33;100013.75;5128922;27;20197;-69
2022/05/10 09:08:35;;;;;;;11.20;2.63;;;;;;;30.00;23.30;100017.34;5132956;27;20186;-65
2022/05/10 09:11:04;;;;;;;3.83;1.90;;;;;;;29.74;22.81;100018.25;5147101;27;20196;-65
2022/05/10 09:13:32;;;;;;;3.50;2.10;;;;;;;29.75;24.26;100017.13;5153325;27;20209;-64
2022/05/10 09:16:02;;;;;;;7.50;2.03;;;;;;;29.72;24.00;100018.56;5153244;27;20562;-64
2022/05/10 09:18:30;;;;;;;4.23;1.83;;;;;;;29.89;24.28;100010.53;5153412;27;20683;-65
2022/05/10 09:21:08;;;;;;;5.17;2.63;;;;;;;29.50;24.44;100009.47;5153504;27;20665;-64
2022/05/10 09:23:41;;;;;;;3.23;2.17;;;;;;;29.38;24.01;100017.38;5153960;27;20193;-65
2022/05/10 09:26:12;;;;;;;5.60;2.30;;;;;;;29.49;24.05;100000.44;5153844;27;20185;-64
2022/05/10 09:28:45;;;;;;;7.50;3.00;;;;;;;29.28;24.69;99994.59;5146943;27;20253;-64
2022/05/10 09:37:17;;;;;;;3.33;1.90;;;;;;;29.47;23.26;99990.94;5129963;28;20190;-65
2022/05/10 09:39:48;;;;;;;2.83;1.63;;;;;;;29.61;22.97;99987.06;5116652;27;20195;-65
2022/05/10 09:42:26;;;;;;;3.73;1.53;;;;;;;29.73;23.72;99981.03;5143130;27;20662;-65
2022/05/10 09:45:00;;;;;;;3.80;2.43;;;;;;;29.27;23.29;99987.50;5153643;27;20265;-63
2022/05/10 09:47:27;;;;;;;4.77;2.70;;;;;;;29.37;23.47;99991.97;5153360;27;20246;-64
2022/05/10 09:49:54;;;;;;;2.03;1.53;;;;;;;29.64;23.04;99986.44;5138584;27;20666;-65
2022/05/10 09:52:27;;;;;;;3.40;2.10;;;;;;;29.85;23.00;99984.03;5133366;27;20186;-65
2022/05/10 09:54:57;;;;;;;4.43;2.20;;;;;;;29.82;23.12;99981.91;5132551;27;20186;-65
2022/05/10 09:57:28;;;;;;;4.70;1.93;;;;;;;29.65;23.14;99993.56;5114306;27;20263;-65
2022/05/10 09:59:54;;;;;;;3.03;1.60;;;;;;;29.72;22.95;99972.00;5112029;28;20182;-65
2022/05/10 10:02:31;;;;;;;4.67;2.03;;;;;;;29.71;22.87;99969.56;5131073;27;20193;-66
2022/05/10 10:04:58;;;;;;;3.07;1.77;;;;;;;29.75;22.59;99971.38;5113904;27;20255;-66
2022/05/10 10:07:27;;;;;;;2.50;2.00;;;;;;;29.93;22.25;99978.59;5120202;28;20618;-66
2022/05/10 10:09:56;;;;;;;2.67;2.47;;;;;;;30.00;22.57;99967.25;5125817;28;20215;-66
2022/05/10 10:12:34;;;;;;;2.30;1.90;;;;;;;29.56;21.48;99957.00;5132653;27;20229;-66
2022/05/10 10:15:03;;;;;;;5.03;2.60;;;;;;;29.46;22.14;99954.50;5121701;28;20255;-64
2022/05/10 10:17:35;;;;;;;2.60;1.33;;;;;;;29.59;19.24;99950.94;5130706;27;20283;-66
2022/05/10 10:20:07;;;;;;;3.17;1.80;;;;;;;29.74;21.19;99947.03;5133549;27;20213;-65
2022/05/10 10:22:41;;;;;;;3.30;1.30;;;;;;;29.82;19.91;99944.38;5136172;27;20238;-66
2022/05/10 10:25:14;;;;;;;2.10;1.70;;;;;;;29.21;18.24;99941.41;5136490;27;20205;-66
2022/05/10 10:27:48;;;;;;;5.40;1.70;;;;;;;29.32;19.89;99937.31;5135280;27;20284;-65
2022/05/10 10:30:23;;;;;;;2.27;1.60;;;;;;;29.27;18.56;99938.25;5137005;27;20536;-66
2022/05/10 10:32:55;;;;;;;4.47;1.43;;;;;;;29.24;19.24;99938.06;5136003;27;20177;-65
2022/05/10 10:35:33;;;;;;;3.93;1.30;;;;;;;29.25;18.09;99928.72;5138271;27;20194;-64
2022/05/10 10:38:11;;;;;;;1.80;1.20;;;;;;;29.44;18.64;99932.13;5124669;27;20189;-69
2022/05/10 10:40:42;;;;;;;1.97;1.33;;;;;;;29.28;18.61;99928.13;5148390;27;20213;-65
2022/05/10 10:43:14;;;;;;;1.70;1.10;;;;;;;29.26;17.42;99927.59;5135714;27;20658;-65
2022/05/10 10:45:45;;;;;;;4.63;1.37;;;;;;;29.01;18.39;99917.19;5136549;27;20206;-65
2022/05/10 10:48:26;;;;;;;2.53;1.30;;;;;;;28.80;18.86;99929.66;5136089;27;20253;-68
2022/05/10 10:50:54;;;;;;;2.97;1.13;;;;;;;28.86;17.80;99922.97;5136122;27;20269;-66
2022/05/10 10:53:21;;;;;;;1.33;1.23;;;;;;;28.71;16.41;99917.81;5135713;27;20194;-66
2022/05/10 10:56:16;;;;;;;0.87;0.80;;;;;;;28.41;16.20;99918.41;5131118;27;20195;-65
2022/05/10 10:58:52;;;;;;;1.60;0.80;;;;;;;28.12;17.30;99926.00;5114943;28;20656;-65
2022/05/10 11:01:37;;;;;;;1.00;1.00;;;;;;;27.73;17.60;99923.63;5127030;27;20703;-65
2022/05/10 11:04:21;;;;;;;1.90;1.00;;;;;;;28.01;18.78;99908.19;5135788;27;20182;-66
2022/05/10 11:06:51;;;;;;;2.13;1.30;;;;;;;28.28;18.18;99900.03;5149796;27;20703;-65
2022/05/10 11:09:38;;;;;;;2.20;1.10;;;;;;;28.39;18.57;99905.03;5156170;27;20189;-65
2022/05/10 11:12:19;;;;;;;8.80;1.20;;;;;;;28.45;18.78;99887.44;5156042;27;20245;-66
2022/05/10 11:15:02;;;;;;;2.13;0.87;;;;;;;28.49;18.75;99898.56;5155975;27;20675;-64
2022/05/10 11:17:38;;;;;;;0.90;0.90;;;;;;;28.41;18.71;99896.53;5156363;27;20601;-65
2022/05/10 11:20:29;;;;;;;2.77;1.30;;;;;;;28.46;18.41;99889.03;5156490;27;20215;-67
2022/05/10 11:23:03;;;;;;;2.97;0.93;;;;;;;28.48;18.40;99891.47;5155665;27;20246;-67
2022/05/10 11:25:58;;;;;;;1.07;1.07;;;;;;;28.42;19.28;99882.56;5155950;27;20236;-67
2022/05/10 11:29:05;;;;;;;4.67;1.10;;;;;;;28.18;19.30;99897.50;5155583;27;20543;-65
2022/05/10 11:31:39;;;;;;;2.17;1.07;;;;;;;28.31;19.92;99896.69;5154602;27;20188;-66
2022/05/10 11:34:24;;;;;;;4.33;1.30;;;;;;;28.35;18.98;99881.31;5154295;27;20188;-65
2022/05/10 11:36:53;;;;;;;2.80;1.23;;;;;;;28.41;19.26;99870.00;5133144;27;20218;-65
2022/05/10 11:39:58;;;;;;;2.60;1.20;;;;;;;28.40;18.45;99879.31;5131861;27;20238;-65
2022/05/10 11:42:32;;;;;;;1.77;0.90;;;;;;;28.49;17.75;99865.75;5114300;28;20247;-66
2022/05/10 11:45:32;;;;;;;1.30;1.20;;;;;;;28.50;19.52;99861.94;5113570;28;20203;-65
2022/05/10 11:48:31;;;;;;;1.30;1.20;;;;;;;28.43;19.81;99869.72;5109096;28;20250;-65
2022/05/10 11:54:34;;;;;;;2.40;1.20;;;;;;;28.07;18.49;99852.34;5114019;28;20174;-65
2022/05/10 11:57:02;;;;;;;0.70;0.70;;;;;;;27.77;17.46;99866.53;5113969;27;20272;-66
2022/05/10 11:59:32;;;;;;;3.23;1.10;;;;;;;27.80;17.81;99858.53;5113966;28;20191;-66